Time;durP1;ratioP1;P1;durP2;ratioP2;P2;SDS_P1;SDS_P2;PMS_P1;PMS_P2;Temp;Humidity;BMP_temperature;BMP_pressure;BME280_temperature;BME280_humidity;BME280_pressure;Samples;Min_cycle;Max_cycle;Signal;HPM_P1;HPM_P2
2022/08/28 00:01:54;;;;;;;12.73;8.55;;;;;;;17.51;100.00;96550.22;5062772;28;20036;-64
2022/08/28 00:04:19;;;;;;;14.30;8.35;;;;;;;17.51;100.00;96548.22;5056442;28;20139;-65
2022/08/28 00:06:44;;;;;;;15.02;8.95;;;;;;;17.52;100.00;96546.22;5060652;28;20140;-65
2022/08/28 00:09:11;;;;;;;9.90;7.82;;;;;;;17.62;100.00;96547.31;5055821;28;20048;-65
2022/08/28 00:11:36;;;;;;;12.07;8.85;;;;;;;17.54;100.00;96543.84;5056963;28;20044;-65
2022/08/28 00:14:07;;;;;;;15.48;10.90;;;;;;;17.25;100.00;96547.00;5061102;28;20051;-65
2022/08/28 00:16:34;;;;;;;16.20;10.13;;;;;;;17.13;100.00;96555.84;5044439;28;20049;-65
2022/08/28 00:19:00;;;;;;;13.43;9.73;;;;;;;17.11;100.00;96549.94;5041059;28;20081;-64
2022/08/28 00:21:27;;;;;;;12.70;8.85;;;;;;;17.08;100.00;96551.53;5048532;28;20037;-64
2022/08/28 00:23:53;;;;;;;20.05;9.55;;;;;;;17.13;100.00;96551.09;5045831;28;20044;-64
2022/08/28 00:29:05;;;;;;;14.10;8.75;;;;;;;17.27;100.00;96552.09;5075458;28;20103;-63
2022/08/28 00:31:31;;;;;;;14.23;8.25;;;;;;;17.29;100.00;96549.72;5072109;28;20457;-64
2022/08/28 00:33:56;;;;;;;13.98;9.07;;;;;;;17.27;100.00;96539.06;5083229;28;20177;-64
2022/08/28 00:36:22;;;;;;;14.38;9.07;;;;;;;17.32;100.00;96549.69;5079019;28;20331;-66
2022/08/28 00:38:48;;;;;;;16.30;8.10;;;;;;;17.33;100.00;96542.94;5065309;28;20389;-64
2022/08/28 00:41:13;;;;;;;11.02;7.72;;;;;;;17.33;100.00;96537.38;5046482;28;20044;-65
2022/08/28 00:43:45;;;;;;;13.68;8.73;;;;;;;17.30;100.00;96542.97;5043237;28;20223;-65
2022/08/28 00:46:15;;;;;;;15.25;8.93;;;;;;;17.18;100.00;96539.56;5045482;28;20051;-65
2022/08/28 00:48:41;;;;;;;16.67;9.07;;;;;;;17.13;100.00;96540.00;5049390;28;20041;-65
2022/08/28 00:53:54;;;;;;;13.15;9.27;;;;;;;17.16;100.00;96530.91;5066209;28;20044;-66
2022/08/28 00:56:20;;;;;;;14.35;9.88;;;;;;;17.04;100.00;96533.41;5050787;28;20036;-66
2022/08/28 00:58:50;;;;;;;13.43;9.02;;;;;;;16.99;100.00;96531.88;5063603;28;20045;-66
2022/08/28 01:01:16;;;;;;;15.82;9.73;;;;;;;16.88;100.00;96531.22;5059073;28;20046;-66
2022/08/28 01:03:43;;;;;;;14.65;9.73;;;;;;;16.78;100.00;96522.59;5063414;28;20076;-66
2022/08/28 01:06:09;;;;;;;15.45;9.48;;;;;;;16.62;100.00;96523.16;5058460;28;20109;-66
2022/08/28 01:08:38;;;;;;;12.98;9.10;;;;;;;16.63;100.00;96526.72;5063598;28;20044;-66
2022/08/28 01:11:06;;;;;;;13.48;8.75;;;;;;;16.63;100.00;96519.19;5059903;28;20054;-64
2022/08/28 01:13:32;;;;;;;14.45;8.18;;;;;;;16.60;100.00;96522.00;5077002;28;20044;-67
2022/08/28 01:15:59;;;;;;;14.35;8.88;;;;;;;16.58;100.00;96527.16;5084170;28;20036;-67
2022/08/28 01:18:26;;;;;;;10.25;8.10;;;;;;;16.54;100.00;96526.41;5078908;28;20044;-66
2022/08/28 01:21:05;;;;;;;12.75;8.90;;;;;;;16.58;100.00;96527.16;5072176;28;20559;-65
2022/08/28 01:24:01;;;;;;;14.93;9.45;;;;;;;16.63;100.00;96518.41;5076362;28;20058;-64
2022/08/28 01:26:27;;;;;;;16.25;10.13;;;;;;;16.65;100.00;96518.00;5079587;28;20048;-64
2022/08/28 01:28:57;;;;;;;22.80;11.85;;;;;;;16.53;100.00;96514.56;5083556;28;20100;-66
2022/08/28 01:31:24;;;;;;;23.73;12.57;;;;;;;16.42;100.00;96511.09;5059221;28;20048;-65
2022/08/28 01:33:50;;;;;;;19.13;13.50;;;;;;;16.40;100.00;96513.50;5062113;28;20429;-66
2022/08/28 01:36:16;;;;;;;21.80;13.38;;;;;;;16.34;100.00;96515.16;5054747;28;20040;-65
2022/08/28 01:38:44;;;;;;;21.48;14.85;;;;;;;16.30;100.00;96517.16;5060140;28;20051;-65
2022/08/28 01:41:12;;;;;;;21.05;13.30;;;;;;;16.34;100.00;96517.91;5038658;28;20033;-63
2022/08/28 01:43:39;;;;;;;21.40;14.38;;;;;;;16.46;100.00;96517.41;5042603;28;20041;-63
2022/08/28 01:46:05;;;;;;;22.35;13.55;;;;;;;16.48;100.00;96514.25;5037593;28;20040;-62
2022/08/28 01:48:35;;;;;;;21.00;14.88;;;;;;;16.52;100.00;96512.22;5043140;28;20055;-62
2022/08/28 01:51:02;;;;;;;23.42;13.50;;;;;;;16.61;100.00;96513.28;5049914;28;20071;-63
2022/08/28 01:53:28;;;;;;;19.00;12.80;;;;;;;16.62;100.00;96509.34;5063411;28;20040;-62
2022/08/28 01:55:55;;;;;;;20.95;12.23;;;;;;;16.57;100.00;96515.31;5062500;28;20044;-63
2022/08/28 01:58:23;;;;;;;18.80;10.60;;;;;;;16.46;100.00;96511.06;5057681;28;20034;-64
2022/08/28 02:00:49;;;;;;;17.52;12.68;;;;;;;16.47;100.00;96507.91;5061238;28;20402;-64
2022/08/28 02:03:15;;;;;;;22.45;13.90;;;;;;;16.46;100.00;96513.84;5057555;28;20047;-64
2022/08/28 02:05:41;;;;;;;19.27;13.68;;;;;;;16.45;100.00;96513.06;5067231;28;20044;-64
2022/08/28 02:08:07;;;;;;;19.55;13.23;;;;;;;16.46;100.00;96516.59;5069452;28;20044;-63
2022/08/28 02:10:35;;;;;;;27.30;17.05;;;;;;;16.22;100.00;96511.72;5082583;28;20430;-64
2022/08/28 02:13:02;;;;;;;27.25;17.42;;;;;;;16.13;100.00;96516.13;5072169;28;20137;-64
2022/08/28 02:15:30;;;;;;;22.88;16.17;;;;;;;16.04;100.00;96522.09;5053203;28;20074;-64
2022/08/28 02:17:56;;;;;;;26.05;16.63;;;;;;;15.95;100.00;96522.56;5042477;28;20056;-64
2022/08/28 02:20:22;;;;;;;26.67;16.30;;;;;;;15.97;100.00;96511.13;5036474;28;20406;-64
2022/08/28 02:22:48;;;;;;;27.60;17.17;;;;;;;15.93;100.00;96516.66;5050545;28;20135;-64
2022/08/28 02:25:14;;;;;;;23.33;14.93;;;;;;;15.95;100.00;96517.03;5048239;28;20427;-63
2022/08/28 02:27:40;;;;;;;20.85;13.43;;;;;;;15.97;100.00;96527.69;5042791;28;20139;-62
2022/08/28 02:30:10;;;;;;;21.63;12.07;;;;;;;15.96;100.00;96520.59;5037775;28;20175;-62
2022/08/28 02:32:36;;;;;;;22.88;13.43;;;;;;;15.84;100.00;96521.88;5042007;28;20105;-63
2022/08/28 02:35:02;;;;;;;23.65;13.80;;;;;;;15.70;100.00;96516.41;5039250;28;20596;-63
2022/08/28 02:37:27;;;;;;;21.17;13.07;;;;;;;15.60;100.00;96526.34;5060130;28;20036;-62
2022/08/28 02:39:55;;;;;;;23.67;15.10;;;;;;;15.54;100.00;96520.47;5034315;28;20071;-63
2022/08/28 02:42:20;;;;;;;22.55;13.30;;;;;;;15.54;100.00;96525.19;5037484;28;20095;-63
2022/08/28 02:44:45;;;;;;;21.75;14.30;;;;;;;15.56;100.00;96520.06;5041108;28;20489;-63
2022/08/28 02:47:12;;;;;;;22.35;14.20;;;;;;;15.60;100.00;96529.09;5036951;28;20044;-63
2022/08/28 02:49:37;;;;;;;21.85;14.35;;;;;;;15.72;100.00;96523.13;5038862;28;20055;-64
2022/08/28 02:52:05;;;;;;;21.13;14.20;;;;;;;15.82;100.00;96518.72;5039326;28;20507;-62
2022/08/28 02:54:31;;;;;;;31.33;15.77;;;;;;;15.83;100.00;96523.06;5054634;28;20059;-64
2022/08/28 02:56:56;;;;;;;22.30;13.48;;;;;;;15.79;100.00;96523.09;5053576;28;20128;-64
2022/08/28 02:59:21;;;;;;;22.95;14.70;;;;;;;15.74;100.00;96525.47;5047211;28;20083;-64
2022/08/28 03:01:47;;;;;;;26.48;16.48;;;;;;;15.72;100.00;96520.34;5041885;28;20094;-65
2022/08/28 03:04:13;;;;;;;23.58;14.10;;;;;;;15.62;100.00;96515.69;5033433;28;20038;-64
2022/08/28 03:06:38;;;;;;;21.48;13.68;;;;;;;15.55;100.00;96516.50;5031006;28;20051;-64
2022/08/28 03:09:05;;;;;;;18.10;12.75;;;;;;;15.55;100.00;96513.75;5037140;28;20048;-62
2022/08/28 03:11:30;;;;;;;25.27;15.82;;;;;;;15.56;100.00;96506.28;5038904;28;20128;-63
2022/08/28 03:13:55;;;;;;;30.65;18.83;;;;;;;15.54;100.00;96503.91;5037614;28;20187;-64
2022/08/28 03:16:21;;;;;;;34.90;22.10;;;;;;;15.45;100.00;96509.09;5016578;28;20045;-64
2022/08/28 03:18:46;;;;;;;34.78;21.40;;;;;;;15.46;100.00;96507.88;5022492;28;20136;-63
2022/08/28 03:21:12;;;;;;;42.35;22.55;;;;;;;15.45;100.00;96507.13;5028820;28;20063;-64
2022/08/28 03:23:38;;;;;;;42.15;24.50;;;;;;;15.43;100.00;96505.94;5040727;28;20507;-64
2022/08/28 03:26:17;;;;;;;40.58;24.20;;;;;;;15.40;100.00;96499.25;5035925;28;20383;-63
2022/08/28 03:28:49;;;;;;;45.75;25.73;;;;;;;15.45;100.00;96515.38;5038034;28;20502;-65
2022/08/28 03:31:18;;;;;;;43.22;27.08;;;;;;;15.50;100.00;96511.41;5035317;28;20064;-64
2022/08/28 03:33:45;;;;;;;44.42;26.05;;;;;;;15.53;100.00;96520.88;5038459;28;20041;-64
2022/08/28 03:36:14;;;;;;;45.75;27.10;;;;;;;15.56;100.00;96514.56;5035054;28;20037;-64
2022/08/28 03:38:40;;;;;;;47.45;26.80;;;;;;;15.59;100.00;96519.25;5035137;28;20037;-63
2022/08/28 03:41:14;;;;;;;44.97;26.98;;;;;;;15.64;100.00;96513.31;5032329;28;20695;-63
2022/08/28 03:43:40;;;;;;;45.45;26.92;;;;;;;15.73;100.00;96523.91;5036568;28;20191;-63
2022/08/28 03:46:07;;;;;;;45.53;27.27;;;;;;;15.78;100.00;96520.75;5018451;28;20105;-63
2022/08/28 03:48:36;;;;;;;38.28;23.33;;;;;;;15.86;100.00;96525.00;5023616;28;20378;-63
2022/08/28 03:51:11;;;;;;;40.30;24.00;;;;;;;15.94;100.00;96528.53;5039769;28;20064;-64
2022/08/28 03:53:37;;;;;;;43.13;24.48;;;;;;;15.95;100.00;96530.84;5060603;28;20040;-65
2022/08/28 03:56:08;;;;;;;42.13;23.92;;;;;;;15.97;100.00;96530.44;5062558;28;20611;-63
2022/08/28 03:58:33;;;;;;;44.08;25.33;;;;;;;15.99;100.00;96528.88;5064900;28;20044;-65
2022/08/28 04:00:59;;;;;;;47.10;24.75;;;;;;;16.08;100.00;96530.38;5064587;28;20066;-64
2022/08/28 04:03:24;;;;;;;39.17;23.48;;;;;;;16.16;100.00;96526.38;5056769;28;20059;-65
2022/08/28 04:05:50;;;;;;;43.78;24.45;;;;;;;16.18;100.00;96530.28;5070818;28;20157;-64
2022/08/28 04:08:18;;;;;;;37.80;24.88;;;;;;;16.23;100.00;96531.81;5042125;28;20051;-65
2022/08/28 04:10:45;;;;;;;32.33;22.20;;;;;;;16.32;100.00;96536.88;5043952;28;20044;-64
2022/08/28 04:13:12;;;;;;;36.25;21.58;;;;;;;16.54;100.00;96531.94;5039381;28;20436;-64
2022/08/28 04:15:39;;;;;;;29.45;20.52;;;;;;;16.65;100.00;96531.84;5064659;28;20038;-64
2022/08/28 04:18:06;;;;;;;31.73;20.17;;;;;;;16.75;100.00;96533.72;5051119;28;20041;-64
2022/08/28 04:20:31;;;;;;;30.23;18.63;;;;;;;16.82;100.00;96536.41;5044764;28;20037;-65
2022/08/28 04:22:57;;;;;;;30.08;19.65;;;;;;;16.85;100.00;96537.56;5043086;28;20048;-64
2022/08/28 04:25:22;;;;;;;30.75;19.27;;;;;;;16.92;100.00;96537.50;5032723;28;20060;-64
2022/08/28 04:27:49;;;;;;;24.33;16.45;;;;;;;17.08;100.00;96540.47;5042974;28;20041;-64
2022/08/28 04:30:15;;;;;;;22.75;15.23;;;;;;;17.12;100.00;96545.97;5039078;28;20037;-64
2022/08/28 04:32:40;;;;;;;24.33;14.57;;;;;;;17.12;100.00;96543.19;5036504;28;20052;-64
2022/08/28 04:35:08;;;;;;;20.88;14.52;;;;;;;17.08;100.00;96526.63;5039755;28;20045;-64
2022/08/28 04:37:34;;;;;;;19.05;13.55;;;;;;;17.11;100.00;96528.56;5044373;28;20643;-64
2022/08/28 04:40:00;;;;;;;22.38;13.70;;;;;;;17.12;100.00;96535.66;5029827;28;20144;-63
2022/08/28 04:42:25;;;;;;;22.30;13.55;;;;;;;17.14;100.00;96538.03;5040321;28;20037;-64
2022/08/28 04:44:56;;;;;;;23.52;13.38;;;;;;;17.14;100.00;96535.25;5044551;28;20123;-64
2022/08/28 04:47:22;;;;;;;18.67;13.38;;;;;;;17.12;100.00;96538.44;5040077;28;20153;-64
2022/08/28 04:49:48;;;;;;;19.58;13.05;;;;;;;17.08;100.00;96525.84;5038217;28;20049;-63
2022/08/28 04:52:14;;;;;;;18.88;12.23;;;;;;;17.05;100.00;96530.25;5039073;28;20048;-64
2022/08/28 04:54:40;;;;;;;18.52;12.55;;;;;;;17.06;100.00;96520.72;5044101;28;20132;-64
2022/08/28 04:57:05;;;;;;;17.95;11.75;;;;;;;17.09;100.00;96542.03;5035725;28;20040;-64
2022/08/28 04:59:31;;;;;;;16.83;11.23;;;;;;;17.12;100.00;96535.66;5044042;28;20136;-64
2022/08/28 05:01:56;;;;;;;17.77;12.73;;;;;;;17.04;100.00;96541.72;5054061;28;20082;-63
2022/08/28 05:04:21;;;;;;;24.70;12.63;;;;;;;17.04;100.00;96536.97;5058428;28;20889;-63
2022/08/28 05:06:47;;;;;;;23.02;13.43;;;;;;;16.97;100.00;96543.34;5063345;28;20051;-63
2022/08/28 05:09:15;;;;;;;18.65;13.52;;;;;;;16.95;100.00;96548.53;5059496;28;20509;-64
2022/08/28 05:11:41;;;;;;;19.25;14.10;;;;;;;17.02;100.00;96539.38;5063827;28;20173;-64
2022/08/28 05:14:10;;;;;;;20.70;13.27;;;;;;;17.09;100.00;96547.59;5058864;28;20048;-63
2022/08/28 05:16:44;;;;;;;19.95;11.65;;;;;;;17.17;100.00;96548.28;5059994;28;20098;-64
2022/08/28 05:19:10;;;;;;;17.10;11.85;;;;;;;17.29;100.00;96552.50;5049176;28;20037;-62
2022/08/28 05:21:36;;;;;;;18.55;12.02;;;;;;;17.47;100.00;96547.50;5059020;28;20033;-66
2022/08/28 05:24:02;;;;;;;17.90;12.20;;;;;;;17.50;100.00;96556.94;5063373;28;20048;-65
2022/08/28 05:26:28;;;;;;;15.80;12.02;;;;;;;17.45;100.00;96558.22;5080359;28;20488;-67
2022/08/28 05:28:55;;;;;;;15.80;11.98;;;;;;;17.50;100.00;96556.94;5084006;28;20085;-67
2022/08/28 05:31:22;;;;;;;19.23;12.45;;;;;;;17.77;100.00;96563.31;5049735;28;20065;-65
2022/08/28 05:33:48;;;;;;;24.60;12.35;;;;;;;18.02;100.00;96564.94;5037358;28;20468;-65
2022/08/28 05:36:16;;;;;;;25.02;15.65;;;;;;;17.89;100.00;96563.97;5037557;28;20033;-65
2022/08/28 05:38:43;;;;;;;25.55;16.38;;;;;;;17.47;100.00;96561.34;5043315;28;20045;-65
2022/08/28 05:41:08;;;;;;;26.02;16.23;;;;;;;17.25;100.00;96571.91;5038541;28;20067;-65
2022/08/28 05:43:34;;;;;;;27.05;17.40;;;;;;;17.17;100.00;96567.66;5044210;28;20064;-65
2022/08/28 05:46:03;;;;;;;28.15;18.52;;;;;;;17.02;100.00;96567.03;5042250;28;20080;-67
2022/08/28 05:48:30;;;;;;;29.17;19.30;;;;;;;16.97;100.00;96568.25;5052430;28;20052;-67
2022/08/28 05:51:20;;;;;;;31.08;20.48;;;;;;;16.98;100.00;96571.81;5066168;28;20036;-66
2022/08/28 05:53:48;;;;;;;34.92;21.48;;;;;;;17.01;100.00;96573.75;5043263;28;20037;-66
2022/08/28 05:56:19;;;;;;;36.33;20.50;;;;;;;17.13;100.00;96580.75;5036705;28;20120;-66
2022/08/28 05:58:44;;;;;;;34.53;21.27;;;;;;;17.22;100.00;96580.25;5042506;28;20069;-67
2022/08/28 06:01:13;;;;;;;36.33;20.10;;;;;;;17.30;100.00;96579.72;5037469;28;20525;-66
2022/08/28 06:03:40;;;;;;;28.85;19.00;;;;;;;17.30;100.00;96588.03;5068317;28;20654;-67
2022/08/28 06:06:08;;;;;;;30.90;19.63;;;;;;;17.31;100.00;96592.38;5069260;28;20040;-67
2022/08/28 06:08:34;;;;;;;25.67;18.15;;;;;;;17.45;100.00;96588.66;5082630;28;20036;-68
2022/08/28 06:11:04;;;;;;;29.10;19.30;;;;;;;17.59;100.00;96593.22;5082224;28;20035;-67
2022/08/28 06:13:31;;;;;;;26.00;18.38;;;;;;;17.49;100.00;96591.38;5068839;28;20045;-67
2022/08/28 06:15:56;;;;;;;26.88;17.95;;;;;;;17.54;100.00;96597.25;5084363;28;20405;-66
2022/08/28 06:18:22;;;;;;;25.65;16.40;;;;;;;17.68;100.00;96593.50;5055695;28;20044;-67
2022/08/28 06:20:48;;;;;;;28.63;19.20;;;;;;;17.52;100.00;96596.88;5055672;28;20131;-67
2022/08/28 06:23:16;;;;;;;31.67;18.25;;;;;;;17.74;100.00;96597.38;5065101;28;20072;-67
2022/08/28 06:25:45;;;;;;;27.63;18.02;;;;;;;17.82;100.00;96598.06;5061343;28;20044;-67
2022/08/28 06:28:12;;;;;;;27.30;17.30;;;;;;;17.95;100.00;96601.88;5056965;28;20428;-67
2022/08/28 06:30:38;;;;;;;27.65;17.90;;;;;;;17.99;100.00;96601.81;5061479;28;20105;-67
2022/08/28 06:33:05;;;;;;;30.30;18.50;;;;;;;18.01;100.00;96601.41;5058352;28;20393;-65
2022/08/28 06:35:31;;;;;;;26.88;17.60;;;;;;;18.04;100.00;96603.31;5061514;28;20051;-67
2022/08/28 06:37:57;;;;;;;29.38;18.98;;;;;;;17.93;100.00;96607.06;5075208;28;20515;-67
2022/08/28 06:40:24;;;;;;;25.75;17.75;;;;;;;18.16;100.00;96608.28;5064658;28;20724;-66
2022/08/28 06:42:50;;;;;;;27.85;17.95;;;;;;;18.09;100.00;96611.16;5062901;28;20123;-67
2022/08/28 06:45:15;;;;;;;30.00;19.27;;;;;;;18.22;100.00;96603.84;5057325;28;20044;-66
2022/08/28 06:47:41;;;;;;;30.17;18.90;;;;;;;18.11;100.00;96603.22;5062145;28;20052;-65
2022/08/28 06:50:06;;;;;;;30.83;19.33;;;;;;;18.19;100.00;96606.69;5056471;28;20047;-65
2022/08/28 06:52:32;;;;;;;30.95;19.40;;;;;;;18.01;100.00;96618.03;5065844;28;20132;-65
2022/08/28 06:54:57;;;;;;;31.02;20.40;;;;;;;17.99;100.00;96614.88;5061630;28;20075;-66
2022/08/28 06:57:24;;;;;;;32.35;20.52;;;;;;;18.09;100.00;96623.03;5056620;28;20798;-65
2022/08/28 06:59:54;;;;;;;36.55;22.63;;;;;;;17.98;100.00;96614.09;5061615;28;20127;-66
2022/08/28 07:02:20;;;;;;;32.40;21.00;;;;;;;18.27;100.00;96624.75;5056622;28;20102;-66
2022/08/28 07:04:49;;;;;;;33.67;21.67;;;;;;;18.16;100.00;96622.16;5067117;28;20044;-66
2022/08/28 07:07:15;;;;;;;33.90;21.75;;;;;;;18.10;100.00;96627.38;5069156;28;20032;-67
2022/08/28 07:09:41;;;;;;;34.20;20.85;;;;;;;18.04;100.00;96628.25;5080616;28;20613;-67
2022/08/28 07:12:07;;;;;;;34.03;22.02;;;;;;;18.05;100.00;96635.38;5064766;28;20411;-68
2022/08/28 07:14:33;;;;;;;34.05;21.08;;;;;;;18.14;100.00;96635.66;5073211;28;20093;-67
2022/08/28 07:16:58;;;;;;;32.58;20.10;;;;;;;18.24;100.00;96634.72;5081997;28;20040;-65
2022/08/28 07:19:24;;;;;;;26.10;18.10;;;;;;;18.56;100.00;96632.63;5068199;28;20072;-65
2022/08/28 07:21:49;;;;;;;30.20;19.30;;;;;;;18.44;100.00;96640.34;5067458;28;20053;-66
2022/08/28 07:24:16;;;;;;;31.33;20.42;;;;;;;18.25;100.00;96643.81;5048260;28;20056;-66
2022/08/28 07:26:43;;;;;;;32.60;20.02;;;;;;;18.23;100.00;96649.75;5066521;28;20047;-66
2022/08/28 07:29:09;;;;;;;33.78;19.88;;;;;;;18.04;100.00;96642.13;5037431;28;20049;-65
2022/08/28 07:31:36;;;;;;;35.35;20.92;;;;;;;18.05;100.00;96646.47;5072801;28;20381;-66
2022/08/28 07:34:01;;;;;;;33.63;19.88;;;;;;;18.11;100.00;96656.69;5091009;28;20048;-65
2022/08/28 07:36:27;;;;;;;33.80;19.38;;;;;;;18.24;100.00;96654.13;5058326;28;20044;-65
2022/08/28 07:38:54;;;;;;;30.83;17.77;;;;;;;18.48;100.00;96649.38;5061233;28;20044;-65
2022/08/28 07:41:23;;;;;;;29.08;17.05;;;;;;;18.78;100.00;96652.47;5053174;28;20032;-65
2022/08/28 07:46:34;;;;;;;25.92;16.20;;;;;;;19.99;100.00;96652.19;5058488;28;20055;-65
2022/08/28 07:49:00;;;;;;;21.02;13.82;;;;;;;20.68;100.00;96654.22;5028000;28;20045;-66
2022/08/28 07:51:26;;;;;;;28.00;14.77;;;;;;;21.49;100.00;96660.91;5016526;28;20128;-66
2022/08/28 07:53:52;;;;;;;19.48;11.20;;;;;;;21.82;100.00;96658.00;5038716;28;20132;-66
2022/08/28 07:56:19;;;;;;;21.23;11.45;;;;;;;22.38;100.00;96662.31;5036166;28;20036;-66
2022/08/28 07:58:45;;;;;;;21.80;13.60;;;;;;;22.39;100.00;96666.69;5039180;28;20098;-65
2022/08/28 08:01:11;;;;;;;19.73;11.88;;;;;;;21.70;100.00;96664.34;5035326;28;20041;-66
2022/08/28 08:03:36;;;;;;;24.23;12.38;;;;;;;20.04;100.00;96665.59;5036695;28;20041;-65
2022/08/28 08:06:03;;;;;;;21.92;12.27;;;;;;;20.34;100.00;96671.31;5039188;28;20090;-66
2022/08/28 08:08:32;;;;;;;17.95;12.02;;;;;;;20.82;100.00;96669.81;5044514;28;20520;-66
2022/08/28 08:11:10;;;;;;;18.70;11.27;;;;;;;20.82;100.00;96672.59;5062177;28;20639;-65
2022/08/28 08:13:37;;;;;;;17.15;10.43;;;;;;;21.43;100.00;96667.41;5062867;28;20490;-64
2022/08/28 08:16:13;;;;;;;13.10;9.73;;;;;;;21.81;100.00;96669.59;5037933;28;20086;-64
2022/08/28 08:18:40;;;;;;;14.38;9.25;;;;;;;21.08;100.00;96673.50;5038142;28;20210;-65
2022/08/28 08:21:09;;;;;;;15.02;10.88;;;;;;;21.27;100.00;96674.63;5029317;28;20048;-65
2022/08/28 08:23:36;;;;;;;16.77;9.65;;;;;;;22.41;100.00;96674.63;5035777;28;20041;-65
2022/08/28 08:26:05;;;;;;;21.27;9.50;;;;;;;22.76;100.00;96674.69;5040924;28;20130;-65
2022/08/28 08:28:33;;;;;;;11.60;7.25;;;;;;;21.38;100.00;96675.09;5053350;28;20072;-65
2022/08/28 08:31:26;;;;;;;13.05;8.15;;;;;;;20.62;100.00;96676.22;5059157;28;20100;-65
2022/08/28 08:33:57;;;;;;;10.70;7.85;;;;;;;20.48;100.00;96678.53;5038457;28;20135;-64
2022/08/28 08:36:25;;;;;;;11.32;7.35;;;;;;;20.64;100.00;96675.03;5038824;28;20152;-65
2022/08/28 08:38:54;;;;;;;14.02;8.30;;;;;;;21.71;100.00;96671.47;5036830;28;20044;-65
2022/08/28 08:41:32;;;;;;;12.32;7.88;;;;;;;23.69;100.00;96681.97;5031151;28;20041;-65
2022/08/28 08:44:09;;;;;;;15.00;8.38;;;;;;;24.26;100.00;96682.66;5044941;28;20467;-65
2022/08/28 08:46:52;;;;;;;10.27;7.65;;;;;;;21.84;100.00;96680.66;5063253;28;20040;-64
2022/08/28 08:49:20;;;;;;;15.43;8.68;;;;;;;21.37;100.00;96684.69;5051732;28;20079;-65
2022/08/28 08:51:53;;;;;;;13.23;9.05;;;;;;;21.44;100.00;96683.72;5065145;28;20136;-64
2022/08/28 08:54:20;;;;;;;12.85;8.60;;;;;;;21.48;100.00;96681.66;5040461;28;20069;-65
2022/08/28 08:56:46;;;;;;;15.15;8.75;;;;;;;21.02;100.00;96686.41;5042470;28;20044;-64
2022/08/28 08:59:26;;;;;;;15.48;9.48;;;;;;;20.87;100.00;96682.41;5037627;28;20045;-64
2022/08/28 09:02:21;;;;;;;13.82;8.65;;;;;;;20.39;100.00;96684.69;5041952;28;20052;-66
2022/08/28 09:05:05;;;;;;;23.67;15.50;;;;;;;20.51;100.00;96680.44;5057871;28;20041;-66
2022/08/28 09:07:51;;;;;;;15.48;9.75;;;;;;;20.80;100.00;96688.94;5056265;28;20052;-66
2022/08/28 09:10:17;;;;;;;17.75;9.55;;;;;;;21.70;100.00;96692.22;5039942;28;20130;-67
2022/08/28 09:12:51;;;;;;;12.82;8.48;;;;;;;22.01;100.00;96686.94;5058808;28;20086;-66
2022/08/28 09:15:33;;;;;;;15.18;9.32;;;;;;;21.12;100.00;96690.91;5037933;28;20037;-66
2022/08/28 09:18:21;;;;;;;13.55;8.60;;;;;;;21.02;100.00;96691.19;5043031;28;20049;-66
2022/08/28 09:20:52;;;;;;;14.85;8.30;;;;;;;21.49;100.00;96690.78;5063939;28;20036;-65
2022/08/28 09:23:19;;;;;;;11.82;7.68;;;;;;;21.87;100.00;96684.56;5058820;28;20745;-65
2022/08/28 09:25:46;;;;;;;17.60;7.93;;;;;;;22.03;100.00;96686.50;5064231;28;20046;-64
2022/08/28 09:28:33;;;;;;;16.13;7.38;;;;;;;23.08;100.00;96685.66;5058747;28;20131;-65
2022/08/28 09:31:06;;;;;;;9.60;7.35;;;;;;;22.66;100.00;96687.78;5074471;28;20037;-64
2022/08/28 09:33:52;;;;;;;12.02;7.30;;;;;;;23.34;100.00;96688.38;5040879;28;20296;-68
2022/08/28 09:36:31;;;;;;;9.65;6.78;;;;;;;23.96;93.54;96689.78;5035460;28;20083;-65
2022/08/28 09:39:15;;;;;;;10.73;6.05;;;;;;;23.74;94.13;96678.59;5042109;28;20124;-65
2022/08/28 09:45:12;;;;;;;9.45;5.95;;;;;;;24.21;92.06;96681.22;5033738;28;20398;-65
2022/08/28 09:47:48;;;;;;;8.55;6.10;;;;;;;23.52;98.21;96681.38;5043281;28;20536;-65
2022/08/28 09:50:24;;;;;;;10.75;7.10;;;;;;;24.04;90.96;96685.50;5038799;28;20696;-66
2022/08/28 09:52:52;;;;;;;9.35;5.43;;;;;;;24.33;91.03;96690.78;5054620;27;20055;-68
2022/08/28 09:55:32;;;;;;;10.13;6.28;;;;;;;24.09;92.59;96690.47;5070004;28;20071;-66
2022/08/28 09:57:58;;;;;;;10.48;5.95;;;;;;;24.74;91.42;96691.59;5033665;28;20037;-65
2022/08/28 10:00:23;;;;;;;11.38;6.25;;;;;;;23.74;93.19;96689.78;5038399;28;20516;-66
2022/08/28 10:03:03;;;;;;;14.15;6.90;;;;;;;23.33;95.26;96689.56;5042751;28;20043;-66
2022/08/28 10:05:48;;;;;;;9.18;6.75;;;;;;;24.04;95.30;96694.66;5060103;28;20036;-66
2022/08/28 10:08:43;;;;;;;15.43;8.20;;;;;;;25.22;90.39;96691.25;5048497;28;20418;-66
2022/08/28 10:11:28;;;;;;;14.88;9.48;;;;;;;26.27;82.80;96687.47;5044623;28;20097;-66
2022/08/28 10:14:11;;;;;;;10.32;7.47;;;;;;;27.27;78.26;96691.13;5068141;28;20066;-66
2022/08/28 10:17:04;;;;;;;12.68;8.05;;;;;;;27.97;74.35;96695.59;5047041;28;20047;-67
2022/08/28 10:19:41;;;;;;;11.48;7.60;;;;;;;27.35;78.45;96685.94;5057288;28;20052;-66
2022/08/28 10:22:09;;;;;;;12.82;7.72;;;;;;;27.95;74.86;96684.03;5040569;28;20186;-66
2022/08/28 10:24:46;;;;;;;10.23;6.90;;;;;;;28.13;73.79;96696.38;5042709;28;20390;-66
2022/08/28 10:27:36;;;;;;;11.95;8.00;;;;;;;27.70;74.01;96690.19;5034251;28;20090;-66
2022/08/28 10:30:12;;;;;;;10.63;7.38;;;;;;;28.20;74.23;96679.88;5041372;28;20559;-66
2022/08/28 10:33:11;;;;;;;9.88;6.43;;;;;;;27.96;68.37;96699.66;5052370;28;20054;-67
2022/08/28 10:35:48;;;;;;;11.98;7.53;;;;;;;27.93;69.08;96686.56;5041955;28;20114;-66
2022/08/28 10:38:32;;;;;;;9.77;6.80;;;;;;;27.54;70.92;96683.75;5053129;28;20738;-66
2022/08/28 10:41:07;;;;;;;13.38;7.57;;;;;;;27.97;71.02;96680.75;5055897;28;20037;-65
2022/08/28 10:43:42;;;;;;;11.75;7.88;;;;;;;27.21;71.29;96676.16;5056319;28;20133;-66
2022/08/28 10:46:15;;;;;;;8.93;6.60;;;;;;;27.14;72.66;96690.56;5039791;28;20044;-65
2022/08/28 10:48:47;;;;;;;12.40;6.70;;;;;;;26.94;74.46;96687.53;5050873;28;20061;-64
2022/08/28 10:51:23;;;;;;;13.30;6.72;;;;;;;26.25;79.48;96690.78;5038438;28;20044;-65
2022/08/28 10:53:58;;;;;;;11.27;6.43;;;;;;;26.27;81.05;96682.66;5040928;28;20095;-65
2022/08/28 10:56:29;;;;;;;11.63;7.35;;;;;;;26.80;76.84;96680.63;5028044;28;21076;-65
2022/08/28 10:59:00;;;;;;;7.38;6.07;;;;;;;27.05;73.78;96677.34;5055331;28;20075;-65
2022/08/28 11:01:28;;;;;;;10.40;6.50;;;;;;;27.35;71.78;96673.88;5051498;28;20052;-65
2022/08/28 11:03:57;;;;;;;12.02;6.68;;;;;;;27.15;69.97;96669.59;5052159;28;20474;-65
2022/08/28 11:06:28;;;;;;;8.10;5.57;;;;;;;27.79;69.00;96682.44;5055919;28;20048;-65
2022/08/28 11:08:57;;;;;;;9.40;5.50;;;;;;;28.62;65.50;96677.25;5062345;28;20060;-65
2022/08/28 11:11:45;;;;;;;7.90;5.95;;;;;;;27.89;64.58;96682.34;5056826;28;20052;-66
2022/08/28 11:14:28;;;;;;;9.20;5.05;;;;;;;28.29;66.51;96679.00;5056640;28;20044;-67
2022/08/28 11:16:57;;;;;;;8.07;6.30;;;;;;;27.21;69.91;96676.16;5058499;28;20103;-67
2022/08/28 11:19:41;;;;;;;10.13;6.65;;;;;;;27.48;68.95;96676.44;5056000;28;20044;-67
2022/08/28 11:22:17;;;;;;;10.70;5.20;;;;;;;27.43;69.57;96678.66;5056943;28;20127;-66
2022/08/28 11:24:43;;;;;;;10.88;5.72;;;;;;;27.43;69.14;96675.09;5053341;28;20045;-68
2022/08/28 11:27:28;;;;;;;8.32;5.25;;;;;;;27.53;69.35;96681.41;5052371;28;20033;-68
2022/08/28 11:30:08;;;;;;;9.60;6.20;;;;;;;27.33;69.34;96679.22;5061669;28;20054;-68
2022/08/28 11:32:33;;;;;;;11.30;5.60;;;;;;;26.97;70.54;96673.31;5061263;28;20388;-69
2022/08/28 11:35:00;;;;;;;5.90;4.30;;;;;;;26.40;65.82;96673.25;5047642;28;20128;-68
2022/08/28 11:37:42;;;;;;;10.07;6.05;;;;;;;26.46;73.01;96674.16;5035800;28;20374;-66